sensor_id;sensor_type;location;lat;lon;timestamp;temperature;humidity
46037;DHT22;31769;49.304;8.428;2023-05-29T00:02:08;17.50;93.10
46037;DHT22;31769;49.304;8.428;2023-05-29T00:05:10;17.40;93.90
46037;DHT22;31769;49.304;8.428;2023-05-29T00:08:12;17.20;94.40
46037;DHT22;31769;49.304;8.428;2023-05-29T00:11:13;17.20;94.80
46037;DHT22;31769;49.304;8.428;2023-05-29T00:14:14;17.10;95.20
46037;DHT22;31769;49.304;8.428;2023-05-29T00:17:15;16.90;95.60
46037;DHT22;31769;49.304;8.428;2023-05-29T00:20:16;16.90;96.10
46037;DHT22;31769;49.304;8.428;2023-05-29T00:23:17;16.80;96.80
46037;DHT22;31769;49.304;8.428;2023-05-29T00:26:18;16.80;97.40
46037;DHT22;31769;49.304;8.428;2023-05-29T00:29:25;16.60;98.10
46037;DHT22;31769;49.304;8.428;2023-05-29T00:32:26;16.60;98.90
46037;DHT22;31769;49.304;8.428;2023-05-29T00:35:27;16.50;99.20
46037;DHT22;31769;49.304;8.428;2023-05-29T00:38:28;16.40;99.70
46037;DHT22;31769;49.304;8.428;2023-05-29T00:41:29;16.40;99.80
46037;DHT22;31769;49.304;8.428;2023-05-29T00:44:30;16.30;99.90
46037;DHT22;31769;49.304;8.428;2023-05-29T00:47:30;16.30;99.90
46037;DHT22;31769;49.304;8.428;2023-05-29T00:50:31;16.30;99.90
46037;DHT22;31769;49.304;8.428;2023-05-29T00:53:32;16.20;99.90
46037;DHT22;31769;49.304;8.428;2023-05-29T00:56:38;16.10;99.90
46037;DHT22;31769;49.304;8.428;2023-05-29T00:59:39;16.10;99.90
46037;DHT22;31769;49.304;8.428;2023-05-29T01:02:42;16.10;99.90
46037;DHT22;31769;49.304;8.428;2023-05-29T01:05:45;16.10;99.90
46037;DHT22;31769;49.304;8.428;2023-05-29T01:08:46;16.10;99.90
46037;DHT22;31769;49.304;8.428;2023-05-29T01:25:19;15.80;99.90
46037;DHT22;31769;49.304;8.428;2023-05-29T01:28:25;15.80;99.90
46037;DHT22;31769;49.304;8.428;2023-05-29T01:31:28;15.80;99.90
46037;DHT22;31769;49.304;8.428;2023-05-29T01:34:32;15.80;99.90
46037;DHT22;31769;49.304;8.428;2023-05-29T01:37:32;15.80;99.90
46037;DHT22;31769;49.304;8.428;2023-05-29T01:40:33;15.70;99.90
46037;DHT22;31769;49.304;8.428;2023-05-29T01:43:34;15.70;99.90
46037;DHT22;31769;49.304;8.428;2023-05-29T01:46:37;15.70;99.90
46037;DHT22;31769;49.304;8.428;2023-05-29T01:49:39;15.70;99.90
46037;DHT22;31769;49.304;8.428;2023-05-29T01:52:42;15.70;99.90
46037;DHT22;31769;49.304;8.428;2023-05-29T01:55:43;15.60;99.90
46037;DHT22;31769;49.304;8.428;2023-05-29T01:58:44;15.60;99.90
46037;DHT22;31769;49.304;8.428;2023-05-29T02:01:47;15.60;99.90
46037;DHT22;31769;49.304;8.428;2023-05-29T02:04:48;15.40;99.90
46037;DHT22;31769;49.304;8.428;2023-05-29T02:07:49;15.40;99.90
46037;DHT22;31769;49.304;8.428;2023-05-29T02:10:49;15.50;99.90
46037;DHT22;31769;49.304;8.428;2023-05-29T02:13:50;15.60;99.90
46037;DHT22;31769;49.304;8.428;2023-05-29T02:16:52;15.30;99.90
46037;DHT22;31769;49.304;8.428;2023-05-29T02:19:53;15.50;99.90
46037;DHT22;31769;49.304;8.428;2023-05-29T02:22:53;15.40;99.90
46037;DHT22;31769;49.304;8.428;2023-05-29T02:25:54;15.40;99.90
46037;DHT22;31769;49.304;8.428;2023-05-29T02:28:55;15.90;99.90
46037;DHT22;31769;49.304;8.428;2023-05-29T02:31:56;15.50;99.90
46037;DHT22;31769;49.304;8.428;2023-05-29T02:34:58;15.50;99.90
46037;DHT22;31769;49.304;8.428;2023-05-29T02:37:59;15.50;99.90
46037;DHT22;31769;49.304;8.428;2023-05-29T02:41:00;15.70;99.90
46037;DHT22;31769;49.304;8.428;2023-05-29T02:44:00;15.50;99.90
46037;DHT22;31769;49.304;8.428;2023-05-29T02:47:01;15.60;99.90
46037;DHT22;31769;49.304;8.428;2023-05-29T02:50:02;15.50;99.90
46037;DHT22;31769;49.304;8.428;2023-05-29T02:53:03;15.50;99.90
46037;DHT22;31769;49.304;8.428;2023-05-29T02:56:04;15.50;99.90
46037;DHT22;31769;49.304;8.428;2023-05-29T02:59:05;15.50;99.90
46037;DHT22;31769;49.304;8.428;2023-05-29T03:02:06;16.20;99.90
46037;DHT22;31769;49.304;8.428;2023-05-29T03:05:07;15.40;99.90
46037;DHT22;31769;49.304;8.428;2023-05-29T03:08:08;15.40;99.90
46037;DHT22;31769;49.304;8.428;2023-05-29T03:11:09;15.30;99.90
46037;DHT22;31769;49.304;8.428;2023-05-29T03:14:11;15.90;99.90
46037;DHT22;31769;49.304;8.428;2023-05-29T03:17:12;15.90;99.90
46037;DHT22;31769;49.304;8.428;2023-05-29T03:20:13;15.20;99.90
46037;DHT22;31769;49.304;8.428;2023-05-29T03:23:14;15.20;99.90
46037;DHT22;31769;49.304;8.428;2023-05-29T03:26:15;15.00;99.90
46037;DHT22;31769;49.304;8.428;2023-05-29T03:29:17;16.20;99.90
46037;DHT22;31769;49.304;8.428;2023-05-29T03:32:19;15.80;99.90
46037;DHT22;31769;49.304;8.428;2023-05-29T03:35:19;15.60;99.90
46037;DHT22;31769;49.304;8.428;2023-05-29T03:38:20;15.00;99.90
46037;DHT22;31769;49.304;8.428;2023-05-29T03:41:21;15.40;99.90
46037;DHT22;31769;49.304;8.428;2023-05-29T03:44:22;15.00;99.90
46037;DHT22;31769;49.304;8.428;2023-05-29T03:47:23;15.10;99.90
46037;DHT22;31769;49.304;8.428;2023-05-29T03:50:25;15.00;99.90
46037;DHT22;31769;49.304;8.428;2023-05-29T03:53:25;15.10;99.90
46037;DHT22;31769;49.304;8.428;2023-05-29T03:56:27;15.10;99.90
46037;DHT22;31769;49.304;8.428;2023-05-29T03:59:28;16.00;99.90
46037;DHT22;31769;49.304;8.428;2023-05-29T04:02:29;15.20;99.90
46037;DHT22;31769;49.304;8.428;2023-05-29T04:05:33;15.20;99.90
46037;DHT22;31769;49.304;8.428;2023-05-29T04:08:33;15.30;99.90
46037;DHT22;31769;49.304;8.428;2023-05-29T04:11:37;14.90;99.90
46037;DHT22;31769;49.304;8.428;2023-05-29T04:14:39;15.30;99.90
46037;DHT22;31769;49.304;8.428;2023-05-29T04:17:39;15.70;99.90
46037;DHT22;31769;49.304;8.428;2023-05-29T04:20:41;16.10;99.90
46037;DHT22;31769;49.304;8.428;2023-05-29T04:23:42;15.60;99.90
46037;DHT22;31769;49.304;8.428;2023-05-29T04:26:43;16.00;99.90
46037;DHT22;31769;49.304;8.428;2023-05-29T04:29:44;15.70;99.90
46037;DHT22;31769;49.304;8.428;2023-05-29T04:32:45;15.70;99.90
46037;DHT22;31769;49.304;8.428;2023-05-29T04:35:47;15.70;99.90
46037;DHT22;31769;49.304;8.428;2023-05-29T04:38:49;16.00;99.90
46037;DHT22;31769;49.304;8.428;2023-05-29T04:41:53;15.70;99.90
46037;DHT22;31769;49.304;8.428;2023-05-29T04:44:56;15.80;99.90
46037;DHT22;31769;49.304;8.428;2023-05-29T04:47:57;15.90;99.90
46037;DHT22;31769;49.304;8.428;2023-05-29T04:50:58;15.80;99.90
46037;DHT22;31769;49.304;8.428;2023-05-29T04:54:00;15.70;99.90
46037;DHT22;31769;49.304;8.428;2023-05-29T04:57:01;15.90;99.90
46037;DHT22;31769;49.304;8.428;2023-05-29T05:00:05;16.10;99.90
46037;DHT22;31769;49.304;8.428;2023-05-29T05:03:10;16.10;99.90
46037;DHT22;31769;49.304;8.428;2023-05-29T05:06:11;16.30;99.90
46037;DHT22;31769;49.304;8.428;2023-05-29T05:09:13;16.40;99.90
46037;DHT22;31769;49.304;8.428;2023-05-29T05:12:14;16.50;99.90
46037;DHT22;31769;49.304;8.428;2023-05-29T05:15:15;16.90;99.90
46037;DHT22;31769;49.304;8.428;2023-05-29T05:18:16;16.90;99.90
46037;DHT22;31769;49.304;8.428;2023-05-29T05:21:20;16.90;99.90
46037;DHT22;31769;49.304;8.428;2023-05-29T05:24:20;17.60;99.90
46037;DHT22;31769;49.304;8.428;2023-05-29T05:27:21;17.10;99.90
46037;DHT22;31769;49.304;8.428;2023-05-29T05:30:22;17.20;99.90
46037;DHT22;31769;49.304;8.428;2023-05-29T05:33:23;17.20;99.90
46037;DHT22;31769;49.304;8.428;2023-05-29T05:36:24;17.30;99.90
46037;DHT22;31769;49.304;8.428;2023-05-29T05:39:31;17.40;99.90
46037;DHT22;31769;49.304;8.428;2023-05-29T05:42:32;17.60;99.90
46037;DHT22;31769;49.304;8.428;2023-05-29T05:45:40;17.70;99.90
46037;DHT22;31769;49.304;8.428;2023-05-29T05:48:43;17.80;99.90
46037;DHT22;31769;49.304;8.428;2023-05-29T05:51:44;17.90;99.90
46037;DHT22;31769;49.304;8.428;2023-05-29T05:54:45;17.90;99.90
46037;DHT22;31769;49.304;8.428;2023-05-29T05:57:47;18.00;99.90
46037;DHT22;31769;49.304;8.428;2023-05-29T06:00:48;18.20;99.90
46037;DHT22;31769;49.304;8.428;2023-05-29T06:03:53;18.30;99.90
46037;DHT22;31769;49.304;8.428;2023-05-29T06:06:54;18.40;99.60
46037;DHT22;31769;49.304;8.428;2023-05-29T06:09:56;18.50;99.30
46037;DHT22;31769;49.304;8.428;2023-05-29T06:12:57;18.50;99.10
46037;DHT22;31769;49.304;8.428;2023-05-29T06:16:03;18.50;99.10
46037;DHT22;31769;49.304;8.428;2023-05-29T06:19:04;18.60;99.00
46037;DHT22;31769;49.304;8.428;2023-05-29T06:22:10;18.80;98.80
46037;DHT22;31769;49.304;8.428;2023-05-29T06:25:12;19.00;98.60
46037;DHT22;31769;49.304;8.428;2023-05-29T06:28:13;19.10;98.30
46037;DHT22;31769;49.304;8.428;2023-05-29T06:31:14;19.20;97.50
46037;DHT22;31769;49.304;8.428;2023-05-29T06:34:15;19.30;97.10
46037;DHT22;31769;49.304;8.428;2023-05-29T06:37:16;19.40;97.20
46037;DHT22;31769;49.304;8.428;2023-05-29T06:40:17;19.40;96.20
46037;DHT22;31769;49.304;8.428;2023-05-29T06:43:18;19.40;95.80
46037;DHT22;31769;49.304;8.428;2023-05-29T06:46:23;19.50;95.60
46037;DHT22;31769;49.304;8.428;2023-05-29T06:49:23;19.60;95.50
46037;DHT22;31769;49.304;8.428;2023-05-29T06:52:24;19.70;95.20
46037;DHT22;31769;49.304;8.428;2023-05-29T06:55:45;19.70;94.70
46037;DHT22;31769;49.304;8.428;2023-05-29T06:58:45;19.70;94.70
46037;DHT22;31769;49.304;8.428;2023-05-29T07:01:48;19.70;94.50
46037;DHT22;31769;49.304;8.428;2023-05-29T07:04:49;19.80;94.00
46037;DHT22;31769;49.304;8.428;2023-05-29T07:07:50;19.90;93.70
46037;DHT22;31769;49.304;8.428;2023-05-29T07:10:50;20.00;93.70
46037;DHT22;31769;49.304;8.428;2023-05-29T07:13:53;20.10;93.30
46037;DHT22;31769;49.304;8.428;2023-05-29T07:16:54;20.20;93.00
46037;DHT22;31769;49.304;8.428;2023-05-29T07:19:55;20.30;93.00
46037;DHT22;31769;49.304;8.428;2023-05-29T07:22:56;20.30;92.90
46037;DHT22;31769;49.304;8.428;2023-05-29T07:25:57;20.40;92.70
46037;DHT22;31769;49.304;8.428;2023-05-29T07:28:59;20.50;92.70
46037;DHT22;31769;49.304;8.428;2023-05-29T07:32:00;20.60;92.30
46037;DHT22;31769;49.304;8.428;2023-05-29T07:35:01;20.60;92.30
46037;DHT22;31769;49.304;8.428;2023-05-29T07:38:01;20.70;92.30
46037;DHT22;31769;49.304;8.428;2023-05-29T07:41:02;20.90;92.30
46037;DHT22;31769;49.304;8.428;2023-05-29T07:44:08;21.00;91.80
46037;DHT22;31769;49.304;8.428;2023-05-29T07:47:09;21.00;91.70
46037;DHT22;31769;49.304;8.428;2023-05-29T07:50:17;21.10;92.00
46037;DHT22;31769;49.304;8.428;2023-05-29T07:53:18;21.10;91.60
46037;DHT22;31769;49.304;8.428;2023-05-29T07:56:21;21.10;91.10
46037;DHT22;31769;49.304;8.428;2023-05-29T07:59:22;21.20;91.30
46037;DHT22;31769;49.304;8.428;2023-05-29T08:02:23;21.30;91.50
46037;DHT22;31769;49.304;8.428;2023-05-29T08:05:42;21.30;90.70
46037;DHT22;31769;49.304;8.428;2023-05-29T08:08:47;21.50;90.20
46037;DHT22;31769;49.304;8.428;2023-05-29T08:11:48;21.70;89.60
46037;DHT22;31769;49.304;8.428;2023-05-29T08:14:48;21.80;90.20
46037;DHT22;31769;49.304;8.428;2023-05-29T08:17:49;21.90;90.20
46037;DHT22;31769;49.304;8.428;2023-05-29T08:20:50;21.90;88.60
46037;DHT22;31769;49.304;8.428;2023-05-29T08:23:50;22.00;88.40
46037;DHT22;31769;49.304;8.428;2023-05-29T08:26:51;22.10;88.10
46037;DHT22;31769;49.304;8.428;2023-05-29T08:29:52;22.20;87.70
46037;DHT22;31769;49.304;8.428;2023-05-29T08:32:54;22.20;87.70
46037;DHT22;31769;49.304;8.428;2023-05-29T08:35:57;22.20;87.50
46037;DHT22;31769;49.304;8.428;2023-05-29T08:38:58;22.30;87.40
46037;DHT22;31769;49.304;8.428;2023-05-29T08:42:04;22.30;87.30
46037;DHT22;31769;49.304;8.428;2023-05-29T08:45:09;22.40;87.90
46037;DHT22;31769;49.304;8.428;2023-05-29T08:48:13;22.50;87.00
46037;DHT22;31769;49.304;8.428;2023-05-29T08:51:16;22.50;86.80
46037;DHT22;31769;49.304;8.428;2023-05-29T08:54:19;22.50;86.60
46037;DHT22;31769;49.304;8.428;2023-05-29T08:57:21;22.50;87.00
46037;DHT22;31769;49.304;8.428;2023-05-29T09:00:23;22.70;86.40
46037;DHT22;31769;49.304;8.428;2023-05-29T09:03:28;22.70;85.60
46037;DHT22;31769;49.304;8.428;2023-05-29T09:06:29;22.80;85.30
46037;DHT22;31769;49.304;8.428;2023-05-29T09:09:31;22.90;85.00
46037;DHT22;31769;49.304;8.428;2023-05-29T09:12:35;23.10;84.90
46037;DHT22;31769;49.304;8.428;2023-05-29T09:15:36;23.20;84.30
46037;DHT22;31769;49.304;8.428;2023-05-29T09:18:39;23.30;84.30
46037;DHT22;31769;49.304;8.428;2023-05-29T09:21:44;23.40;83.30
46037;DHT22;31769;49.304;8.428;2023-05-29T09:24:51;23.50;82.60
46037;DHT22;31769;49.304;8.428;2023-05-29T09:27:58;23.70;81.60
46037;DHT22;31769;49.304;8.428;2023-05-29T09:30:59;23.80;82.30
46037;DHT22;31769;49.304;8.428;2023-05-29T09:34:02;23.90;81.90
46037;DHT22;31769;49.304;8.428;2023-05-29T09:37:05;24.10;81.10
46037;DHT22;31769;49.304;8.428;2023-05-29T09:40:11;24.20;80.40
46037;DHT22;31769;49.304;8.428;2023-05-29T09:46:15;24.50;80.50
46037;DHT22;31769;49.304;8.428;2023-05-29T09:49:22;24.80;78.60
46037;DHT22;31769;49.304;8.428;2023-05-29T09:52:23;24.80;78.20
46037;DHT22;31769;49.304;8.428;2023-05-29T09:55:25;24.70;77.10
46037;DHT22;31769;49.304;8.428;2023-05-29T09:58:27;24.60;75.60
46037;DHT22;31769;49.304;8.428;2023-05-29T10:01:29;24.50;76.10
46037;DHT22;31769;49.304;8.428;2023-05-29T10:04:30;24.60;76.80
46037;DHT22;31769;49.304;8.428;2023-05-29T10:07:40;24.60;75.70
46037;DHT22;31769;49.304;8.428;2023-05-29T10:10:47;24.60;75.40
46037;DHT22;31769;49.304;8.428;2023-05-29T10:13:48;24.50;75.70
46037;DHT22;31769;49.304;8.428;2023-05-29T10:16:50;24.40;75.10
46037;DHT22;31769;49.304;8.428;2023-05-29T10:19:53;24.60;74.50
46037;DHT22;31769;49.304;8.428;2023-05-29T10:22:56;24.70;74.70
46037;DHT22;31769;49.304;8.428;2023-05-29T10:26:26;24.80;74.20
46037;DHT22;31769;49.304;8.428;2023-05-29T10:29:49;24.90;73.20
46037;DHT22;31769;49.304;8.428;2023-05-29T10:33:16;25.10;73.40
46037;DHT22;31769;49.304;8.428;2023-05-29T10:36:22;25.20;72.50
46037;DHT22;31769;49.304;8.428;2023-05-29T10:39:26;25.30;71.80
46037;DHT22;31769;49.304;8.428;2023-05-29T10:45:48;25.40;70.80
46037;DHT22;31769;49.304;8.428;2023-05-29T10:48:50;25.40;70.30
46037;DHT22;31769;49.304;8.428;2023-05-29T10:51:51;25.50;70.30
46037;DHT22;31769;49.304;8.428;2023-05-29T10:54:54;25.70;70.30
46037;DHT22;31769;49.304;8.428;2023-05-29T10:57:55;25.80;69.50
46037;DHT22;31769;49.304;8.428;2023-05-29T11:00:55;25.90;68.60
46037;DHT22;31769;49.304;8.428;2023-05-29T11:08:15;26.40;68.70
46037;DHT22;31769;49.304;8.428;2023-05-29T11:10:58;26.60;66.90
46037;DHT22;31769;49.304;8.428;2023-05-29T11:14:04;26.50;66.30
46037;DHT22;31769;49.304;8.428;2023-05-29T11:17:05;26.60;67.00
46037;DHT22;31769;49.304;8.428;2023-05-29T11:23:24;27.10;65.00
46037;DHT22;31769;49.304;8.428;2023-05-29T11:26:27;27.40;64.60
46037;DHT22;31769;49.304;8.428;2023-05-29T11:29:28;27.50;64.20
46037;DHT22;31769;49.304;8.428;2023-05-29T11:32:30;27.70;63.50
46037;DHT22;31769;49.304;8.428;2023-05-29T11:35:34;27.90;64.50
46037;DHT22;31769;49.304;8.428;2023-05-29T11:38:37;28.40;62.80
46037;DHT22;31769;49.304;8.428;2023-05-29T11:41:38;28.40;60.50
46037;DHT22;31769;49.304;8.428;2023-05-29T11:44:38;28.30;60.40
46037;DHT22;31769;49.304;8.428;2023-05-29T11:48:00;28.30;59.70
46037;DHT22;31769;49.304;8.428;2023-05-29T11:51:03;28.50;59.10
46037;DHT22;31769;49.304;8.428;2023-05-29T11:54:04;28.50;58.50
46037;DHT22;31769;49.304;8.428;2023-05-29T11:57:05;28.50;58.90
46037;DHT22;31769;49.304;8.428;2023-05-29T12:00:07;28.60;57.70
46037;DHT22;31769;49.304;8.428;2023-05-29T12:03:10;28.90;56.80
46037;DHT22;31769;49.304;8.428;2023-05-29T12:06:11;29.20;56.60
46037;DHT22;31769;49.304;8.428;2023-05-29T12:09:29;29.60;56.60
46037;DHT22;31769;49.304;8.428;2023-05-29T12:12:30;29.80;55.20
46037;DHT22;31769;49.304;8.428;2023-05-29T12:15:31;29.70;55.00
46037;DHT22;31769;49.304;8.428;2023-05-29T12:18:32;29.80;54.70
46037;DHT22;31769;49.304;8.428;2023-05-29T12:21:33;30.10;54.10
46037;DHT22;31769;49.304;8.428;2023-05-29T12:24:35;30.10;54.00
46037;DHT22;31769;49.304;8.428;2023-05-29T12:27:38;30.00;54.10
46037;DHT22;31769;49.304;8.428;2023-05-29T12:30:44;30.00;53.50
46037;DHT22;31769;49.304;8.428;2023-05-29T12:33:49;30.80;53.60
46037;DHT22;31769;49.304;8.428;2023-05-29T12:36:50;32.10;52.80
46037;DHT22;31769;49.304;8.428;2023-05-29T12:40:32;33.00;50.10
46037;DHT22;31769;49.304;8.428;2023-05-29T12:43:34;34.80;49.10
46037;DHT22;31769;49.304;8.428;2023-05-29T12:46:37;36.70;46.30
46037;DHT22;31769;49.304;8.428;2023-05-29T12:49:38;38.50;43.10
46037;DHT22;31769;49.304;8.428;2023-05-29T12:52:40;39.50;40.50
46037;DHT22;31769;49.304;8.428;2023-05-29T12:55:42;39.20;39.40
46037;DHT22;31769;49.304;8.428;2023-05-29T12:58:43;39.50;38.80
46037;DHT22;31769;49.304;8.428;2023-05-29T13:01:44;40.50;38.30
46037;DHT22;31769;49.304;8.428;2023-05-29T13:04:44;42.00;37.10
46037;DHT22;31769;49.304;8.428;2023-05-29T13:07:52;44.10;35.80
46037;DHT22;31769;49.304;8.428;2023-05-29T13:10:52;45.20;34.60
46037;DHT22;31769;49.304;8.428;2023-05-29T13:13:53;45.60;33.90
46037;DHT22;31769;49.304;8.428;2023-05-29T13:16:54;46.20;33.10
46037;DHT22;31769;49.304;8.428;2023-05-29T13:19:54;47.20;32.50
46037;DHT22;31769;49.304;8.428;2023-05-29T13:22:55;48.90;32.40
46037;DHT22;31769;49.304;8.428;2023-05-29T13:25:56;50.70;31.00
46037;DHT22;31769;49.304;8.428;2023-05-29T13:28:56;51.60;29.80
46037;DHT22;31769;49.304;8.428;2023-05-29T13:31:57;51.50;29.70
46037;DHT22;31769;49.304;8.428;2023-05-29T13:34:58;51.30;29.30
46037;DHT22;31769;49.304;8.428;2023-05-29T13:37:59;51.30;29.10
46037;DHT22;31769;49.304;8.428;2023-05-29T13:40:59;51.30;29.10
46037;DHT22;31769;49.304;8.428;2023-05-29T13:44:00;52.00;28.60
46037;DHT22;31769;49.304;8.428;2023-05-29T13:47:01;52.30;28.80
46037;DHT22;31769;49.304;8.428;2023-05-29T13:50:02;52.70;28.60
46037;DHT22;31769;49.304;8.428;2023-05-29T13:53:03;53.70;28.50
46037;DHT22;31769;49.304;8.428;2023-05-29T13:56:04;54.80;28.10
46037;DHT22;31769;49.304;8.428;2023-05-29T13:59:05;54.60;27.50
46037;DHT22;31769;49.304;8.428;2023-05-29T14:02:06;54.20;27.50
46037;DHT22;31769;49.304;8.428;2023-05-29T14:05:08;54.00;27.60
46037;DHT22;31769;49.304;8.428;2023-05-29T14:08:11;54.70;27.20
46037;DHT22;31769;49.304;8.428;2023-05-29T14:11:11;55.20;27.40
46037;DHT22;31769;49.304;8.428;2023-05-29T14:14:12;55.90;27.10
46037;DHT22;31769;49.304;8.428;2023-05-29T14:17:14;56.30;26.80
46037;DHT22;31769;49.304;8.428;2023-05-29T14:20:15;55.30;26.60
46037;DHT22;31769;49.304;8.428;2023-05-29T14:23:19;55.50;26.80
46037;DHT22;31769;49.304;8.428;2023-05-29T14:26:19;55.80;26.60
46037;DHT22;31769;49.304;8.428;2023-05-29T14:29:20;55.20;26.70
46037;DHT22;31769;49.304;8.428;2023-05-29T14:32:21;54.30;26.60
46037;DHT22;31769;49.304;8.428;2023-05-29T14:35:22;52.90;27.10
46037;DHT22;31769;49.304;8.428;2023-05-29T14:38:23;52.40;27.40
46037;DHT22;31769;49.304;8.428;2023-05-29T14:41:24;51.30;27.40
46037;DHT22;31769;49.304;8.428;2023-05-29T14:44:26;50.60;27.60
46037;DHT22;31769;49.304;8.428;2023-05-29T14:47:26;51.90;27.30
46037;DHT22;31769;49.304;8.428;2023-05-29T14:50:27;53.00;27.20
46037;DHT22;31769;49.304;8.428;2023-05-29T14:53:28;53.40;27.10
46037;DHT22;31769;49.304;8.428;2023-05-29T14:56:28;52.50;27.00
46037;DHT22;31769;49.304;8.428;2023-05-29T14:59:30;52.80;27.20
46037;DHT22;31769;49.304;8.428;2023-05-29T15:02:31;52.50;27.10
46037;DHT22;31769;49.304;8.428;2023-05-29T15:05:32;52.00;27.20
46037;DHT22;31769;49.304;8.428;2023-05-29T15:08:33;52.20;27.30
46037;DHT22;31769;49.304;8.428;2023-05-29T15:11:36;53.10;27.20
46037;DHT22;31769;49.304;8.428;2023-05-29T15:14:37;54.30;26.90
46037;DHT22;31769;49.304;8.428;2023-05-29T15:17:37;54.80;26.70
46037;DHT22;31769;49.304;8.428;2023-05-29T15:20:40;54.50;26.60
46037;DHT22;31769;49.304;8.428;2023-05-29T15:23:41;53.80;26.60
46037;DHT22;31769;49.304;8.428;2023-05-29T15:26:43;52.80;27.00
46037;DHT22;31769;49.304;8.428;2023-05-29T15:29:45;52.60;27.00
46037;DHT22;31769;49.304;8.428;2023-05-29T15:32:46;51.60;27.20
46037;DHT22;31769;49.304;8.428;2023-05-29T15:35:47;51.40;26.90
46037;DHT22;31769;49.304;8.428;2023-05-29T15:38:51;49.30;27.70
46037;DHT22;31769;49.304;8.428;2023-05-29T15:41:52;50.10;27.70
46037;DHT22;31769;49.304;8.428;2023-05-29T15:44:52;51.90;27.40
46037;DHT22;31769;49.304;8.428;2023-05-29T15:47:53;52.30;27.30
46037;DHT22;31769;49.304;8.428;2023-05-29T15:50:53;52.50;26.90
46037;DHT22;31769;49.304;8.428;2023-05-29T15:53:54;51.90;26.90
46037;DHT22;31769;49.304;8.428;2023-05-29T15:56:55;51.60;26.90
46037;DHT22;31769;49.304;8.428;2023-05-29T15:59:56;51.60;26.80
46037;DHT22;31769;49.304;8.428;2023-05-29T16:02:56;51.20;26.90
46037;DHT22;31769;49.304;8.428;2023-05-29T16:05:57;51.20;27.00
46037;DHT22;31769;49.304;8.428;2023-05-29T16:08:58;51.10;27.20
46037;DHT22;31769;49.304;8.428;2023-05-29T16:11:59;51.80;27.20
46037;DHT22;31769;49.304;8.428;2023-05-29T16:14:59;51.80;26.90
46037;DHT22;31769;49.304;8.428;2023-05-29T16:18:00;51.20;27.00
46037;DHT22;31769;49.304;8.428;2023-05-29T16:21:01;49.60;27.30
46037;DHT22;31769;49.304;8.428;2023-05-29T16:24:05;49.00;27.60
46037;DHT22;31769;49.304;8.428;2023-05-29T16:27:06;47.50;27.90
46037;DHT22;31769;49.304;8.428;2023-05-29T16:30:07;47.10;28.10
46037;DHT22;31769;49.304;8.428;2023-05-29T16:33:09;47.00;28.10
46037;DHT22;31769;49.304;8.428;2023-05-29T16:36:09;46.30;28.30
46037;DHT22;31769;49.304;8.428;2023-05-29T16:39:14;46.60;28.30
46037;DHT22;31769;49.304;8.428;2023-05-29T16:42:15;46.50;28.20
46037;DHT22;31769;49.304;8.428;2023-05-29T16:45:16;46.80;28.20
46037;DHT22;31769;49.304;8.428;2023-05-29T16:48:17;46.20;28.30
46037;DHT22;31769;49.304;8.428;2023-05-29T16:51:18;44.80;28.90
46037;DHT22;31769;49.304;8.428;2023-05-29T16:54:18;43.90;29.30
46037;DHT22;31769;49.304;8.428;2023-05-29T16:57:29;43.50;29.40
46037;DHT22;31769;49.304;8.428;2023-05-29T17:00:30;43.30;29.60
46037;DHT22;31769;49.304;8.428;2023-05-29T17:03:31;42.50;29.90
46037;DHT22;31769;49.304;8.428;2023-05-29T17:06:35;41.70;30.30
46037;DHT22;31769;49.304;8.428;2023-05-29T17:09:36;41.20;30.80
46037;DHT22;31769;49.304;8.428;2023-05-29T17:12:37;40.60;31.10
46037;DHT22;31769;49.304;8.428;2023-05-29T17:15:39;40.50;31.40
46037;DHT22;31769;49.304;8.428;2023-05-29T17:18:40;40.70;31.40
46037;DHT22;31769;49.304;8.428;2023-05-29T17:21:41;40.50;31.80
46037;DHT22;31769;49.304;8.428;2023-05-29T17:24:41;39.40;32.90
46037;DHT22;31769;49.304;8.428;2023-05-29T17:27:42;38.10;34.20
46037;DHT22;31769;49.304;8.428;2023-05-29T17:30:43;37.30;35.20
46037;DHT22;31769;49.304;8.428;2023-05-29T17:33:44;35.50;36.90
46037;DHT22;31769;49.304;8.428;2023-05-29T17:36:47;34.00;38.60
46037;DHT22;31769;49.304;8.428;2023-05-29T17:39:48;33.20;39.40
46037;DHT22;31769;49.304;8.428;2023-05-29T17:42:48;32.80;40.00
46037;DHT22;31769;49.304;8.428;2023-05-29T17:45:49;32.40;40.50
46037;DHT22;31769;49.304;8.428;2023-05-29T17:48:52;32.00;40.90
46037;DHT22;31769;49.304;8.428;2023-05-29T17:51:53;31.20;42.00
46037;DHT22;31769;49.304;8.428;2023-05-29T17:54:53;30.50;43.10
46037;DHT22;31769;49.304;8.428;2023-05-29T17:57:55;29.90;43.60
46037;DHT22;31769;49.304;8.428;2023-05-29T18:00:56;29.50;44.30
46037;DHT22;31769;49.304;8.428;2023-05-29T18:03:57;29.00;45.00
46037;DHT22;31769;49.304;8.428;2023-05-29T18:06:58;28.60;45.10
46037;DHT22;31769;49.304;8.428;2023-05-29T18:09:59;28.20;45.60
46037;DHT22;31769;49.304;8.428;2023-05-29T18:12:59;28.10;46.00
46037;DHT22;31769;49.304;8.428;2023-05-29T18:16:00;27.80;46.50
46037;DHT22;31769;49.304;8.428;2023-05-29T18:19:01;27.40;47.00
46037;DHT22;31769;49.304;8.428;2023-05-29T18:22:02;27.20;47.80
46037;DHT22;31769;49.304;8.428;2023-05-29T18:25:03;26.60;48.20
46037;DHT22;31769;49.304;8.428;2023-05-29T18:28:04;26.50;48.80
46037;DHT22;31769;49.304;8.428;2023-05-29T18:31:05;26.20;49.10
46037;DHT22;31769;49.304;8.428;2023-05-29T18:34:05;26.00;50.10
46037;DHT22;31769;49.304;8.428;2023-05-29T18:37:06;26.00;49.80
46037;DHT22;31769;49.304;8.428;2023-05-29T18:40:07;25.80;50.20
46037;DHT22;31769;49.304;8.428;2023-05-29T18:43:09;25.70;50.30
46037;DHT22;31769;49.304;8.428;2023-05-29T18:46:10;25.60;50.50
46037;DHT22;31769;49.304;8.428;2023-05-29T18:49:11;25.60;50.90
46037;DHT22;31769;49.304;8.428;2023-05-29T18:52:11;25.30;51.10
46037;DHT22;31769;49.304;8.428;2023-05-29T18:55:12;25.10;51.70
46037;DHT22;31769;49.304;8.428;2023-05-29T18:58:13;24.80;52.20
46037;DHT22;31769;49.304;8.428;2023-05-29T19:01:14;24.80;52.80
46037;DHT22;31769;49.304;8.428;2023-05-29T19:04:14;24.50;53.40
46037;DHT22;31769;49.304;8.428;2023-05-29T19:07:15;24.40;53.70
46037;DHT22;31769;49.304;8.428;2023-05-29T19:10:16;24.30;54.30
46037;DHT22;31769;49.304;8.428;2023-05-29T19:13:17;24.00;54.90
46037;DHT22;31769;49.304;8.428;2023-05-29T19:16:19;24.00;56.10
46037;DHT22;31769;49.304;8.428;2023-05-29T19:19:20;23.70;57.40
46037;DHT22;31769;49.304;8.428;2023-05-29T19:22:22;23.60;58.80
46037;DHT22;31769;49.304;8.428;2023-05-29T19:25:23;23.50;60.30
46037;DHT22;31769;49.304;8.428;2023-05-29T19:28:23;23.30;61.00
46037;DHT22;31769;49.304;8.428;2023-05-29T19:31:24;23.20;61.90
46037;DHT22;31769;49.304;8.428;2023-05-29T19:34:26;23.20;63.00
46037;DHT22;31769;49.304;8.428;2023-05-29T19:37:27;23.00;63.40